sensor_id;sensor_type;location;lat;lon;timestamp;temperature;humidity
9901;DHT22;4989;48.772;9.154;2023-07-20T08:50:19;26.10;55.70
9901;DHT22;4989;48.772;9.154;2023-07-20T09:00:34;25.00;53.90
9901;DHT22;4989;48.772;9.154;2023-07-20T09:18:11;26.90;50.70
9901;DHT22;4989;48.772;9.154;2023-07-20T09:23:15;26.60;54.30
9901;DHT22;4989;48.772;9.154;2023-07-20T09:28:20;27.00;53.70
9901;DHT22;4989;48.772;9.154;2023-07-20T09:33:24;26.80;53.50
9901;DHT22;4989;48.772;9.154;2023-07-20T09:38:41;26.50;53.90
9901;DHT22;4989;48.772;9.154;2023-07-20T09:49:40;26.90;49.00
9901;DHT22;4989;48.772;9.154;2023-07-20T09:55:12;27.60;49.50
9901;DHT22;4989;48.772;9.154;2023-07-20T10:00:39;27.00;52.70
9901;DHT22;4989;48.772;9.154;2023-07-20T10:05:52;26.70;51.90
9901;DHT22;4989;48.772;9.154;2023-07-20T10:11:01;27.00;50.00
9901;DHT22;4989;48.772;9.154;2023-07-20T10:16:10;27.00;49.50
9901;DHT22;4989;48.772;9.154;2023-07-20T10:21:13;27.70;51.20
9901;DHT22;4989;48.772;9.154;2023-07-20T10:26:31;27.40;51.20
9901;DHT22;4989;48.772;9.154;2023-07-20T10:31:48;27.50;51.40
9901;DHT22;4989;48.772;9.154;2023-07-20T10:36:54;27.90;47.40
9901;DHT22;4989;48.772;9.154;2023-07-20T10:42:07;28.70;46.40
9901;DHT22;4989;48.772;9.154;2023-07-20T10:47:11;28.80;45.20
9901;DHT22;4989;48.772;9.154;2023-07-20T10:52:17;29.50;47.10
9901;DHT22;4989;48.772;9.154;2023-07-20T10:57:29;28.90;48.70
9901;DHT22;4989;48.772;9.154;2023-07-20T11:02:42;28.60;46.10
9901;DHT22;4989;48.772;9.154;2023-07-20T11:07:51;29.30;43.00
9901;DHT22;4989;48.772;9.154;2023-07-20T11:13:23;28.80;47.80
9901;DHT22;4989;48.772;9.154;2023-07-20T11:18:29;28.40;49.00
9901;DHT22;4989;48.772;9.154;2023-07-20T11:29:40;30.10;44.90
9901;DHT22;4989;48.772;9.154;2023-07-20T11:34:49;30.00;42.20
9901;DHT22;4989;48.772;9.154;2023-07-20T11:39:56;29.90;46.20
9901;DHT22;4989;48.772;9.154;2023-07-20T11:44:59;30.30;46.40
9901;DHT22;4989;48.772;9.154;2023-07-20T11:50:04;30.70;44.60
9901;DHT22;4989;48.772;9.154;2023-07-20T11:55:10;30.50;45.30
9901;DHT22;4989;48.772;9.154;2023-07-20T12:00:19;30.30;46.10
9901;DHT22;4989;48.772;9.154;2023-07-20T12:05:30;30.20;45.20
9901;DHT22;4989;48.772;9.154;2023-07-20T12:10:33;30.80;44.70
9901;DHT22;4989;48.772;9.154;2023-07-20T12:15:36;30.40;45.10
9901;DHT22;4989;48.772;9.154;2023-07-20T12:20:42;29.70;46.10
9901;DHT22;4989;48.772;9.154;2023-07-20T12:25:47;30.30;45.50
9901;DHT22;4989;48.772;9.154;2023-07-20T12:30:52;30.10;45.90
9901;DHT22;4989;48.772;9.154;2023-07-20T12:36:01;30.60;45.20
9901;DHT22;4989;48.772;9.154;2023-07-20T12:41:10;30.60;44.90
9901;DHT22;4989;48.772;9.154;2023-07-20T12:46:19;30.00;45.00
9901;DHT22;4989;48.772;9.154;2023-07-20T12:51:23;29.60;45.80
9901;DHT22;4989;48.772;9.154;2023-07-20T12:56:26;30.50;44.90
9901;DHT22;4989;48.772;9.154;2023-07-20T13:01:32;30.10;44.90
9901;DHT22;4989;48.772;9.154;2023-07-20T13:06:36;29.90;45.10
9901;DHT22;4989;48.772;9.154;2023-07-20T13:11:45;29.80;45.20
9901;DHT22;4989;48.772;9.154;2023-07-20T13:16:51;30.10;45.10
9901;DHT22;4989;48.772;9.154;2023-07-20T13:21:53;30.60;43.20
9901;DHT22;4989;48.772;9.154;2023-07-20T13:26:58;30.40;39.40
9901;DHT22;4989;48.772;9.154;2023-07-20T13:32:05;29.90;42.30
9901;DHT22;4989;48.772;9.154;2023-07-20T13:37:11;30.30;44.40
9901;DHT22;4989;48.772;9.154;2023-07-20T13:42:18;30.30;44.30
9901;DHT22;4989;48.772;9.154;2023-07-20T13:47:27;30.70;44.30
9901;DHT22;4989;48.772;9.154;2023-07-20T13:52:31;30.70;44.40
9901;DHT22;4989;48.772;9.154;2023-07-20T13:57:37;30.70;43.90
9901;DHT22;4989;48.772;9.154;2023-07-20T14:02:52;30.50;44.00
9901;DHT22;4989;48.772;9.154;2023-07-20T14:07:58;30.50;44.20
9901;DHT22;4989;48.772;9.154;2023-07-20T14:13:18;30.60;44.00
9901;DHT22;4989;48.772;9.154;2023-07-20T14:18:31;30.90;40.10
9901;DHT22;4989;48.772;9.154;2023-07-20T14:23:36;30.40;44.20
9901;DHT22;4989;48.772;9.154;2023-07-20T14:28:38;30.40;45.20
9901;DHT22;4989;48.772;9.154;2023-07-20T14:39:48;31.10;43.80
9901;DHT22;4989;48.772;9.154;2023-07-20T14:45:17;31.10;44.00
9901;DHT22;4989;48.772;9.154;2023-07-20T14:50:20;31.30;44.10
9901;DHT22;4989;48.772;9.154;2023-07-20T14:55:25;31.40;39.40
9901;DHT22;4989;48.772;9.154;2023-07-20T15:00:28;31.30;43.00
9901;DHT22;4989;48.772;9.154;2023-07-20T15:05:35;31.00;45.00
9901;DHT22;4989;48.772;9.154;2023-07-20T15:10:42;30.90;45.10
9901;DHT22;4989;48.772;9.154;2023-07-20T15:15:58;30.70;42.00
9901;DHT22;4989;48.772;9.154;2023-07-20T15:21:03;30.70;46.00
9901;DHT22;4989;48.772;9.154;2023-07-20T15:26:07;30.20;46.40
9901;DHT22;4989;48.772;9.154;2023-07-20T15:31:19;30.20;46.60
9901;DHT22;4989;48.772;9.154;2023-07-20T15:36:44;30.00;47.00
9901;DHT22;4989;48.772;9.154;2023-07-20T15:41:47;29.90;47.20
9901;DHT22;4989;48.772;9.154;2023-07-20T15:47:15;29.90;43.30
9901;DHT22;4989;48.772;9.154;2023-07-20T15:52:29;29.90;46.40
9901;DHT22;4989;48.772;9.154;2023-07-20T15:57:32;29.70;46.10
9901;DHT22;4989;48.772;9.154;2023-07-20T16:08:22;29.20;47.00
9901;DHT22;4989;48.772;9.154;2023-07-20T16:13:24;29.00;46.70
9901;DHT22;4989;48.772;9.154;2023-07-20T16:18:29;28.90;46.70
9901;DHT22;4989;48.772;9.154;2023-07-20T16:23:31;29.00;46.80
9901;DHT22;4989;48.772;9.154;2023-07-20T16:28:36;29.00;46.60
9901;DHT22;4989;48.772;9.154;2023-07-20T16:33:44;29.00;46.80
9901;DHT22;4989;48.772;9.154;2023-07-20T16:38:53;28.90;47.00
9901;DHT22;4989;48.772;9.154;2023-07-20T16:49:46;28.60;46.80
9901;DHT22;4989;48.772;9.154;2023-07-20T16:54:59;28.60;46.90
9901;DHT22;4989;48.772;9.154;2023-07-20T17:00:03;28.60;47.00
9901;DHT22;4989;48.772;9.154;2023-07-20T17:05:12;28.50;47.30
9901;DHT22;4989;48.772;9.154;2023-07-20T17:10:16;28.50;47.60
9901;DHT22;4989;48.772;9.154;2023-07-20T17:15:19;28.50;48.20
9901;DHT22;4989;48.772;9.154;2023-07-20T17:20:23;28.40;47.60
9901;DHT22;4989;48.772;9.154;2023-07-20T17:25:34;28.40;46.80
9901;DHT22;4989;48.772;9.154;2023-07-20T17:31:01;28.30;47.20
9901;DHT22;4989;48.772;9.154;2023-07-20T17:36:07;28.40;46.90
9901;DHT22;4989;48.772;9.154;2023-07-20T17:41:18;28.40;46.90
9901;DHT22;4989;48.772;9.154;2023-07-20T17:46:24;28.30;47.10
9901;DHT22;4989;48.772;9.154;2023-07-20T17:51:31;28.20;46.80
9901;DHT22;4989;48.772;9.154;2023-07-20T17:56:47;28.20;46.80
9901;DHT22;4989;48.772;9.154;2023-07-20T18:02:12;28.20;46.90
9901;DHT22;4989;48.772;9.154;2023-07-20T18:07:21;28.20;46.80
9901;DHT22;4989;48.772;9.154;2023-07-20T18:12:26;28.20;47.30
9901;DHT22;4989;48.772;9.154;2023-07-20T18:17:33;28.10;46.80
9901;DHT22;4989;48.772;9.154;2023-07-20T18:22:39;28.10;47.50
9901;DHT22;4989;48.772;9.154;2023-07-20T18:27:48;28.10;47.40
9901;DHT22;4989;48.772;9.154;2023-07-20T18:32:50;28.00;48.90
9901;DHT22;4989;48.772;9.154;2023-07-20T18:37:53;28.10;49.00
9901;DHT22;4989;48.772;9.154;2023-07-20T18:42:58;28.10;48.10
9901;DHT22;4989;48.772;9.154;2023-07-20T18:48:04;28.10;48.80
9901;DHT22;4989;48.772;9.154;2023-07-20T18:53:07;28.10;48.30
9901;DHT22;4989;48.772;9.154;2023-07-20T18:58:19;28.20;48.50
9901;DHT22;4989;48.772;9.154;2023-07-20T19:03:24;28.00;41.30
9901;DHT22;4989;48.772;9.154;2023-07-20T19:08:26;27.90;42.30
9901;DHT22;4989;48.772;9.154;2023-07-20T19:13:34;27.90;42.90
9901;DHT22;4989;48.772;9.154;2023-07-20T19:18:36;28.00;48.30
9901;DHT22;4989;48.772;9.154;2023-07-20T19:23:47;27.90;49.70
9901;DHT22;4989;48.772;9.154;2023-07-20T19:28:52;27.90;48.90
9901;DHT22;4989;48.772;9.154;2023-07-20T19:33:57;27.90;49.00
9901;DHT22;4989;48.772;9.154;2023-07-20T19:39:01;27.90;43.80
9901;DHT22;4989;48.772;9.154;2023-07-20T19:44:05;27.90;48.00
9901;DHT22;4989;48.772;9.154;2023-07-20T19:49:11;27.70;49.80
9901;DHT22;4989;48.772;9.154;2023-07-20T20:00:10;27.50;49.50
9901;DHT22;4989;48.772;9.154;2023-07-20T20:05:25;27.50;49.90
9901;DHT22;4989;48.772;9.154;2023-07-20T20:10:28;27.40;47.50
9901;DHT22;4989;48.772;9.154;2023-07-20T20:15:53;27.40;49.80
9901;DHT22;4989;48.772;9.154;2023-07-20T20:20:57;27.40;49.10
9901;DHT22;4989;48.772;9.154;2023-07-20T20:26:02;27.40;48.10
9901;DHT22;4989;48.772;9.154;2023-07-20T20:31:08;27.30;46.50
9901;DHT22;4989;48.772;9.154;2023-07-20T20:36:10;27.30;47.50
9901;DHT22;4989;48.772;9.154;2023-07-20T20:41:12;27.30;48.50
9901;DHT22;4989;48.772;9.154;2023-07-20T20:46:16;27.20;50.10
9901;DHT22;4989;48.772;9.154;2023-07-20T20:51:22;27.20;47.90
9901;DHT22;4989;48.772;9.154;2023-07-20T20:56:26;26.60;44.40
9901;DHT22;4989;48.772;9.154;2023-07-20T21:01:46;26.90;50.20
9901;DHT22;4989;48.772;9.154;2023-07-20T21:06:48;27.00;50.40
9901;DHT22;4989;48.772;9.154;2023-07-20T21:11:52;26.90;47.90
9901;DHT22;4989;48.772;9.154;2023-07-20T21:16:57;26.90;49.70
9901;DHT22;4989;48.772;9.154;2023-07-20T21:21:59;26.80;48.00
9901;DHT22;4989;48.772;9.154;2023-07-20T21:27:02;26.70;48.50
9901;DHT22;4989;48.772;9.154;2023-07-20T21:32:05;26.80;48.30
9901;DHT22;4989;48.772;9.154;2023-07-20T21:37:09;26.80;50.40
9901;DHT22;4989;48.772;9.154;2023-07-20T21:42:11;26.70;49.60
9901;DHT22;4989;48.772;9.154;2023-07-20T21:47:13;26.60;48.00
9901;DHT22;4989;48.772;9.154;2023-07-20T21:52:16;26.60;49.60
9901;DHT22;4989;48.772;9.154;2023-07-20T21:57:18;26.60;47.70
9901;DHT22;4989;48.772;9.154;2023-07-20T22:02:21;26.50;48.90
9901;DHT22;4989;48.772;9.154;2023-07-20T22:07:23;26.50;48.10
9901;DHT22;4989;48.772;9.154;2023-07-20T22:12:25;26.40;49.60
9901;DHT22;4989;48.772;9.154;2023-07-20T22:17:27;26.50;49.90
9901;DHT22;4989;48.772;9.154;2023-07-20T22:22:30;26.40;48.20
9901;DHT22;4989;48.772;9.154;2023-07-20T22:27:32;26.30;48.70
9901;DHT22;4989;48.772;9.154;2023-07-20T22:32:35;26.40;48.80
9901;DHT22;4989;48.772;9.154;2023-07-20T22:37:38;26.30;49.00
9901;DHT22;4989;48.772;9.154;2023-07-20T22:42:41;26.30;49.40
9901;DHT22;4989;48.772;9.154;2023-07-20T22:47:44;26.30;49.00
9901;DHT22;4989;48.772;9.154;2023-07-20T22:52:48;26.20;48.70
9901;DHT22;4989;48.772;9.154;2023-07-20T22:57:50;26.20;49.80
